This is the latest recevied weather packets stored in our database for station/object SQ9RHX-13. If no packets are shown the sender has not sent any weather packets the latest 1 day(s).
| Time | Temp. | Humidity | Pressure | Rain* | Wind** | Luminosity | Snow |
|---|---|---|---|---|---|---|---|
| 1836274682 | 12.78° C | 98% | 1025.4 hPa | 0 mm | 0 m/s | 0 W/m² | - |
| 1836274529 | 12.22° C | 98% | 1025.2 hPa | 0 mm | 0 m/s | 0 W/m² | - |
| 1836274380 | 12.78° C | 98% | 1025.3 hPa | 0 mm | 0 m/s | 0 W/m² | - |
| 1836274230 | 12.78° C | 98% | 1025.3 hPa | 0 mm | 0 m/s | 0 W/m² | - |
| 1836274079 | 12.22° C | 98% | 1025.5 hPa | 0 mm | 0 m/s | 0 W/m² | - |
| 1778024705 | 11.67° C | 86% | 1008.6 hPa | 0 mm | 0 m/s | 0 W/m² | - |
| 1778024403 | 11.67° C | 86% | 1008.8 hPa | 0 mm | 0 m/s | 0 W/m² | - |
| 1778024103 | 11.67° C | 85% | 1009 hPa | 0 mm | 0 m/s | 0 W/m² | - |
| 1778023803 | 11.67° C | 84% | 1008.6 hPa | 0 mm | 0 m/s | 0 W/m² | - |
| 1778023503 | 12.22° C | 83% | 1008.9 hPa | 0 mm | 0 m/s | 0 W/m² | - |
| 1778023203 | 12.22° C | 82% | 1008.8 hPa | 0 mm | 0 m/s | 0 W/m² | - |
| 1778022904 | 12.78° C | 81% | 1008.8 hPa | 0 mm | 0 m/s | 0 W/m² | - |
| 1778022603 | 12.78° C | 80% | 1008.8 hPa | 0 mm | 0 m/s | 0 W/m² | - |
| 1778022302 | 13.33° C | 78% | 1008.7 hPa | 0 mm | 0 m/s | 0 W/m² | - |
| 1778022004 | 13.33° C | 78% | 1008.7 hPa | 0 mm | 0 m/s | 0 W/m² | - |
| 1778021703 | 13.33° C | 81% | 1008.9 hPa | 0 mm | 0 m/s | 0 W/m² | - |
| 1778021402 | 13.33° C | 82% | 1008.9 hPa | 0 mm | 0 m/s | 0 W/m² | - |
| 1778021102 | 12.78° C | 83% | 1009.1 hPa | 0 mm | 0 m/s | 0 W/m² | - |
| 1778020803 | 12.78° C | 84% | 1009.2 hPa | 0 mm | 0 m/s | 0 W/m² | - |
| 1778020503 | 12.78° C | 85% | 1009.1 hPa | 0 mm | 0 m/s | 0 W/m² | - |
| 1778020202 | 12.78° C | 87% | 1009.3 hPa | 0 mm | 0 m/s | 0 W/m² | - |
| 1778019904 | 12.78° C | 87% | 1009.5 hPa | 0 mm | 0 m/s | 0 W/m² | - |
| 1778019604 | 12.78° C | 86% | 1009.4 hPa | 0 mm | 0 m/s | 0 W/m² | - |
| 1778019305 | 12.78° C | 85% | 1009.4 hPa | 0 mm | 0 m/s | 0 W/m² | - |
| 1778019002 | 13.33° C | 84% | 1009.3 hPa | 0 mm | 0 m/s | 0 W/m² | - |
* Rain latest hour (hover to see other rain measurements)
** Current wind speed in m/s (hover to see current wind gust speed)